OPKC/KHI METAR and TAF weather

Enter ICAO airport designator
Station Type Date Time Source
OPKC METAR 2019/08/23 15:25 UTC NOAA

OPKC 231525Z 23010KT 5000 HZ BKN020 29/23 Q1005 NOSIG


Station Type Date Time Source
OPKC Decoded METAR 2019/08/23 15:25 UTC NOAA

Station name not available
Aug 23, 2019 - 11:25 AM EDT / 2019.08.23 1525 UTC
Wind: from the SW (230 degrees) at 12 MPH (10 KT):0
Visibility: 3 mile(s):0
Sky conditions: mostly cloudy
Weather: haze
Temperature: 84 F (29 C)
Dew Point: 73 F (23 C)
Relative Humidity: 70%
Pressure (altimeter): 29.68 in. Hg (1005 hPa)
ob: OPKC 231525Z 23010KT 5000 HZ BKN020 29/23 Q1005 NOSIG
cycle: 15

Station Type Date Time Source
OPKC TAF 2019/08/23 18:30 UTC NOAA

TAF OPKC 231530Z 2318/2424 25010KT 6000 BKN030 FM 240500 24008G18KT 7000 SCT030
BECMG 2418/2420 27010KT 6000 SCT030

Example: see airport list